sensor_id;sensor_type;location;lat;lon;timestamp;P1;durP1;ratioP1;P2;durP2;ratioP2
19006;SDS011;9636;47.382;8.480;2022-08-14T00:05:29;3.20;;;2.83;;
19006;SDS011;9636;47.382;8.480;2022-08-14T00:08:35;3.03;;;2.63;;
19006;SDS011;9636;47.382;8.480;2022-08-14T00:11:28;3.30;;;3.00;;
19006;SDS011;9636;47.382;8.480;2022-08-14T00:13:55;3.27;;;2.97;;
19006;SDS011;9636;47.382;8.480;2022-08-14T00:16:23;3.90;;;3.50;;
19006;SDS011;9636;47.382;8.480;2022-08-14T00:18:50;5.90;;;3.23;;
19006;SDS011;9636;47.382;8.480;2022-08-14T00:21:17;3.27;;;2.97;;
19006;SDS011;9636;47.382;8.480;2022-08-14T00:23:44;3.17;;;2.87;;
19006;SDS011;9636;47.382;8.480;2022-08-14T00:26:11;3.47;;;3.17;;
19006;SDS011;9636;47.382;8.480;2022-08-14T00:28:38;3.77;;;2.90;;
19006;SDS011;9636;47.382;8.480;2022-08-14T00:31:05;3.50;;;3.20;;
19006;SDS011;9636;47.382;8.480;2022-08-14T00:33:34;3.50;;;3.20;;
19006;SDS011;9636;47.382;8.480;2022-08-14T00:36:01;5.73;;;2.80;;
19006;SDS011;9636;47.382;8.480;2022-08-14T00:38:28;4.60;;;3.33;;
19006;SDS011;9636;47.382;8.480;2022-08-14T00:40:55;3.87;;;3.20;;
19006;SDS011;9636;47.382;8.480;2022-08-14T00:43:22;4.77;;;3.20;;
19006;SDS011;9636;47.382;8.480;2022-08-14T00:45:49;4.47;;;3.20;;
19006;SDS011;9636;47.382;8.480;2022-08-14T00:48:16;3.50;;;3.17;;
19006;SDS011;9636;47.382;8.480;2022-08-14T00:50:44;4.07;;;3.57;;
19006;SDS011;9636;47.382;8.480;2022-08-14T00:53:11;5.67;;;3.10;;
19006;SDS011;9636;47.382;8.480;2022-08-14T00:55:40;3.40;;;3.10;;
19006;SDS011;9636;47.382;8.480;2022-08-14T00:58:10;3.13;;;2.83;;
19006;SDS011;9636;47.382;8.480;2022-08-14T01:00:56;3.70;;;3.30;;
19006;SDS011;9636;47.382;8.480;2022-08-14T01:03:23;3.63;;;3.30;;
19006;SDS011;9636;47.382;8.480;2022-08-14T01:05:52;3.93;;;3.53;;
19006;SDS011;9636;47.382;8.480;2022-08-14T01:08:20;4.10;;;3.70;;
19006;SDS011;9636;47.382;8.480;2022-08-14T01:10:48;4.43;;;3.50;;
19006;SDS011;9636;47.382;8.480;2022-08-14T01:13:16;4.10;;;3.37;;
19006;SDS011;9636;47.382;8.480;2022-08-14T01:15:45;4.17;;;3.70;;
19006;SDS011;9636;47.382;8.480;2022-08-14T01:18:14;3.97;;;3.57;;
19006;SDS011;9636;47.382;8.480;2022-08-14T01:21:09;3.73;;;3.43;;
19006;SDS011;9636;47.382;8.480;2022-08-14T01:23:39;3.80;;;3.50;;
19006;SDS011;9636;47.382;8.480;2022-08-14T01:26:08;5.07;;;3.90;;
19006;SDS011;9636;47.382;8.480;2022-08-14T01:28:36;4.90;;;3.77;;
19006;SDS011;9636;47.382;8.480;2022-08-14T01:31:05;4.67;;;3.67;;
19006;SDS011;9636;47.382;8.480;2022-08-14T01:33:33;5.87;;;3.70;;
19006;SDS011;9636;47.382;8.480;2022-08-14T01:36:09;3.83;;;3.53;;
19006;SDS011;9636;47.382;8.480;2022-08-14T01:38:39;3.30;;;3.00;;
19006;SDS011;9636;47.382;8.480;2022-08-14T01:41:08;3.70;;;3.40;;
19006;SDS011;9636;47.382;8.480;2022-08-14T01:43:44;4.47;;;3.70;;
19006;SDS011;9636;47.382;8.480;2022-08-14T01:46:13;4.90;;;3.80;;
19006;SDS011;9636;47.382;8.480;2022-08-14T01:48:41;3.70;;;3.40;;
19006;SDS011;9636;47.382;8.480;2022-08-14T01:51:10;5.30;;;3.37;;
19006;SDS011;9636;47.382;8.480;2022-08-14T01:53:41;3.83;;;3.47;;
19006;SDS011;9636;47.382;8.480;2022-08-14T01:56:11;3.37;;;3.00;;
19006;SDS011;9636;47.382;8.480;2022-08-14T01:58:42;4.30;;;3.90;;
19006;SDS011;9636;47.382;8.480;2022-08-14T02:01:12;4.20;;;3.80;;
19006;SDS011;9636;47.382;8.480;2022-08-14T02:03:40;4.60;;;3.43;;
19006;SDS011;9636;47.382;8.480;2022-08-14T02:06:07;4.10;;;3.63;;
19006;SDS011;9636;47.382;8.480;2022-08-14T02:08:35;4.47;;;3.70;;
19006;SDS011;9636;47.382;8.480;2022-08-14T02:11:05;4.23;;;3.80;;
19006;SDS011;9636;47.382;8.480;2022-08-14T02:13:47;4.17;;;3.77;;
19006;SDS011;9636;47.382;8.480;2022-08-14T02:16:15;5.20;;;3.53;;
19006;SDS011;9636;47.382;8.480;2022-08-14T02:18:44;7.23;;;3.47;;
19006;SDS011;9636;47.382;8.480;2022-08-14T02:21:13;3.97;;;3.67;;
19006;SDS011;9636;47.382;8.480;2022-08-14T02:23:43;3.60;;;3.30;;
19006;SDS011;9636;47.382;8.480;2022-08-14T02:26:16;4.10;;;3.70;;
19006;SDS011;9636;47.382;8.480;2022-08-14T02:28:45;4.50;;;3.30;;
19006;SDS011;9636;47.382;8.480;2022-08-14T02:31:15;4.07;;;3.67;;
19006;SDS011;9636;47.382;8.480;2022-08-14T02:33:42;3.80;;;3.50;;
19006;SDS011;9636;47.382;8.480;2022-08-14T02:36:11;7.17;;;3.93;;
19006;SDS011;9636;47.382;8.480;2022-08-14T02:38:38;5.80;;;4.00;;
19006;SDS011;9636;47.382;8.480;2022-08-14T02:41:09;4.20;;;3.80;;
19006;SDS011;9636;47.382;8.480;2022-08-14T02:43:39;6.17;;;3.83;;
19006;SDS011;9636;47.382;8.480;2022-08-14T02:46:07;5.83;;;4.00;;
19006;SDS011;9636;47.382;8.480;2022-08-14T02:48:36;5.33;;;4.17;;
19006;SDS011;9636;47.382;8.480;2022-08-14T02:51:06;4.23;;;3.83;;
19006;SDS011;9636;47.382;8.480;2022-08-14T02:53:35;4.30;;;3.90;;
19006;SDS011;9636;47.382;8.480;2022-08-14T02:56:05;4.17;;;3.70;;
19006;SDS011;9636;47.382;8.480;2022-08-14T02:58:34;4.13;;;3.83;;
19006;SDS011;9636;47.382;8.480;2022-08-14T03:01:05;4.77;;;3.60;;
19006;SDS011;9636;47.382;8.480;2022-08-14T03:03:32;4.43;;;3.67;;
19006;SDS011;9636;47.382;8.480;2022-08-14T03:06:01;3.80;;;3.50;;
19006;SDS011;9636;47.382;8.480;2022-08-14T03:08:28;5.27;;;4.20;;
19006;SDS011;9636;47.382;8.480;2022-08-14T03:10:57;5.40;;;3.80;;
19006;SDS011;9636;47.382;8.480;2022-08-14T03:13:24;4.50;;;4.10;;
19006;SDS011;9636;47.382;8.480;2022-08-14T03:15:51;4.43;;;4.03;;
19006;SDS011;9636;47.382;8.480;2022-08-14T03:18:20;6.23;;;4.20;;
19006;SDS011;9636;47.382;8.480;2022-08-14T03:20:48;4.50;;;4.10;;
19006;SDS011;9636;47.382;8.480;2022-08-14T03:23:15;7.13;;;4.13;;
19006;SDS011;9636;47.382;8.480;2022-08-14T03:25:42;4.47;;;4.07;;
19006;SDS011;9636;47.382;8.480;2022-08-14T03:28:10;4.37;;;3.97;;
19006;SDS011;9636;47.382;8.480;2022-08-14T03:30:37;4.27;;;3.87;;
19006;SDS011;9636;47.382;8.480;2022-08-14T03:33:05;4.43;;;4.03;;
19006;SDS011;9636;47.382;8.480;2022-08-14T03:35:33;9.27;;;4.50;;
19006;SDS011;9636;47.382;8.480;2022-08-14T03:38:03;6.03;;;4.10;;
19006;SDS011;9636;47.382;8.480;2022-08-14T03:40:32;4.27;;;3.87;;
19006;SDS011;9636;47.382;8.480;2022-08-14T03:42:59;6.90;;;4.10;;
19006;SDS011;9636;47.382;8.480;2022-08-14T03:45:29;4.90;;;4.50;;
19006;SDS011;9636;47.382;8.480;2022-08-14T03:47:56;4.80;;;4.30;;
19006;SDS011;9636;47.382;8.480;2022-08-14T03:50:25;6.47;;;4.17;;
19006;SDS011;9636;47.382;8.480;2022-08-14T03:52:54;5.13;;;4.63;;
19006;SDS011;9636;47.382;8.480;2022-08-14T03:55:20;5.07;;;4.30;;
19006;SDS011;9636;47.382;8.480;2022-08-14T03:57:47;5.93;;;4.20;;
19006;SDS011;9636;47.382;8.480;2022-08-14T04:00:15;4.20;;;3.80;;
19006;SDS011;9636;47.382;8.480;2022-08-14T04:02:42;4.83;;;4.10;;
19006;SDS011;9636;47.382;8.480;2022-08-14T04:05:09;4.70;;;4.20;;
19006;SDS011;9636;47.382;8.480;2022-08-14T04:07:36;6.47;;;4.77;;
19006;SDS011;9636;47.382;8.480;2022-08-14T04:10:06;6.13;;;4.10;;
19006;SDS011;9636;47.382;8.480;2022-08-14T04:12:34;7.13;;;4.17;;
19006;SDS011;9636;47.382;8.480;2022-08-14T04:15:04;5.03;;;4.50;;
19006;SDS011;9636;47.382;8.480;2022-08-14T04:17:32;6.33;;;4.40;;
19006;SDS011;9636;47.382;8.480;2022-08-14T04:19:59;5.40;;;4.20;;
19006;SDS011;9636;47.382;8.480;2022-08-14T04:22:32;5.10;;;4.60;;
19006;SDS011;9636;47.382;8.480;2022-08-14T04:24:59;4.83;;;4.10;;
19006;SDS011;9636;47.382;8.480;2022-08-14T04:27:28;6.07;;;4.80;;
19006;SDS011;9636;47.382;8.480;2022-08-14T04:29:55;4.77;;;4.27;;
19006;SDS011;9636;47.382;8.480;2022-08-14T04:32:22;4.40;;;4.00;;
19006;SDS011;9636;47.382;8.480;2022-08-14T04:34:51;5.90;;;4.30;;
19006;SDS011;9636;47.382;8.480;2022-08-14T04:37:19;5.33;;;4.60;;
19006;SDS011;9636;47.382;8.480;2022-08-14T04:40:04;7.70;;;4.60;;
19006;SDS011;9636;47.382;8.480;2022-08-14T04:42:52;4.70;;;4.30;;
19006;SDS011;9636;47.382;8.480;2022-08-14T04:45:37;5.20;;;4.70;;
19006;SDS011;9636;47.382;8.480;2022-08-14T04:48:06;5.47;;;4.40;;
19006;SDS011;9636;47.382;8.480;2022-08-14T04:50:40;5.20;;;4.57;;
19006;SDS011;9636;47.382;8.480;2022-08-14T04:53:09;4.80;;;4.37;;
19006;SDS011;9636;47.382;8.480;2022-08-14T04:55:38;6.23;;;4.40;;
19006;SDS011;9636;47.382;8.480;2022-08-14T04:58:08;5.07;;;4.57;;
19006;SDS011;9636;47.382;8.480;2022-08-14T05:00:35;5.97;;;4.70;;
19006;SDS011;9636;47.382;8.480;2022-08-14T05:03:04;5.90;;;4.93;;
19006;SDS011;9636;47.382;8.480;2022-08-14T05:05:31;4.60;;;4.10;;
19006;SDS011;9636;47.382;8.480;2022-08-14T05:08:05;4.90;;;4.40;;
19006;SDS011;9636;47.382;8.480;2022-08-14T05:10:36;6.87;;;4.60;;
19006;SDS011;9636;47.382;8.480;2022-08-14T05:13:05;6.50;;;4.97;;
19006;SDS011;9636;47.382;8.480;2022-08-14T05:15:34;4.63;;;4.10;;
19006;SDS011;9636;47.382;8.480;2022-08-14T05:18:06;4.77;;;4.37;;
19006;SDS011;9636;47.382;8.480;2022-08-14T05:20:37;5.13;;;4.43;;
19006;SDS011;9636;47.382;8.480;2022-08-14T05:23:06;5.37;;;4.27;;
19006;SDS011;9636;47.382;8.480;2022-08-14T05:25:33;5.33;;;4.50;;
19006;SDS011;9636;47.382;8.480;2022-08-14T05:28:06;4.83;;;4.43;;
19006;SDS011;9636;47.382;8.480;2022-08-14T05:30:38;4.87;;;4.37;;
19006;SDS011;9636;47.382;8.480;2022-08-14T05:33:08;5.87;;;4.80;;
19006;SDS011;9636;47.382;8.480;2022-08-14T05:35:36;5.63;;;4.47;;
19006;SDS011;9636;47.382;8.480;2022-08-14T05:38:05;6.80;;;4.37;;
19006;SDS011;9636;47.382;8.480;2022-08-14T05:40:33;5.60;;;4.40;;
19006;SDS011;9636;47.382;8.480;2022-08-14T05:43:00;5.13;;;4.63;;
19006;SDS011;9636;47.382;8.480;2022-08-14T05:45:27;5.13;;;4.63;;
19006;SDS011;9636;47.382;8.480;2022-08-14T05:47:56;5.10;;;4.57;;
19006;SDS011;9636;47.382;8.480;2022-08-14T05:50:23;6.57;;;4.80;;
19006;SDS011;9636;47.382;8.480;2022-08-14T05:52:50;8.30;;;4.57;;
19006;SDS011;9636;47.382;8.480;2022-08-14T05:55:17;5.20;;;4.70;;
19006;SDS011;9636;47.382;8.480;2022-08-14T05:57:44;6.37;;;4.90;;
19006;SDS011;9636;47.382;8.480;2022-08-14T06:00:13;8.20;;;4.70;;
19006;SDS011;9636;47.382;8.480;2022-08-14T06:02:41;6.57;;;5.00;;
19006;SDS011;9636;47.382;8.480;2022-08-14T06:05:10;9.17;;;4.93;;
19006;SDS011;9636;47.382;8.480;2022-08-14T06:07:37;6.20;;;4.63;;
19006;SDS011;9636;47.382;8.480;2022-08-14T06:10:05;4.93;;;4.43;;
19006;SDS011;9636;47.382;8.480;2022-08-14T06:12:33;5.25;;;4.68;;
19006;SDS011;9636;47.382;8.480;2022-08-14T06:15:00;5.07;;;4.68;;
19006;SDS011;9636;47.382;8.480;2022-08-14T06:17:27;5.18;;;4.68;;
19006;SDS011;9636;47.382;8.480;2022-08-14T06:19:54;6.10;;;5.10;;
19006;SDS011;9636;47.382;8.480;2022-08-14T06:22:22;7.00;;;4.90;;
19006;SDS011;9636;47.382;8.480;2022-08-14T06:24:49;5.90;;;5.07;;
19006;SDS011;9636;47.382;8.480;2022-08-14T06:27:16;5.22;;;4.70;;
19006;SDS011;9636;47.382;8.480;2022-08-14T06:29:43;6.82;;;4.97;;
19006;SDS011;9636;47.382;8.480;2022-08-14T06:32:10;5.40;;;4.78;;
19006;SDS011;9636;47.382;8.480;2022-08-14T06:34:37;5.53;;;4.93;;
19006;SDS011;9636;47.382;8.480;2022-08-14T06:37:04;6.75;;;4.75;;
19006;SDS011;9636;47.382;8.480;2022-08-14T06:39:32;6.78;;;4.90;;
19006;SDS011;9636;47.382;8.480;2022-08-14T06:41:59;9.05;;;5.03;;
19006;SDS011;9636;47.382;8.480;2022-08-14T06:44:27;5.43;;;4.90;;
19006;SDS011;9636;47.382;8.480;2022-08-14T06:46:54;5.65;;;5.07;;
19006;SDS011;9636;47.382;8.480;2022-08-14T06:49:21;4.72;;;4.43;;
19006;SDS011;9636;47.382;8.480;2022-08-14T06:51:50;5.50;;;4.85;;
19006;SDS011;9636;47.382;8.480;2022-08-14T06:54:18;5.05;;;4.60;;
19006;SDS011;9636;47.382;8.480;2022-08-14T06:56:46;6.60;;;5.28;;
19006;SDS011;9636;47.382;8.480;2022-08-14T06:59:13;5.43;;;4.43;;
19006;SDS011;9636;47.382;8.480;2022-08-14T07:01:40;6.05;;;4.88;;
19006;SDS011;9636;47.382;8.480;2022-08-14T07:04:25;5.07;;;4.57;;
19006;SDS011;9636;47.382;8.480;2022-08-14T07:07:10;6.13;;;4.93;;
19006;SDS011;9636;47.382;8.480;2022-08-14T07:09:36;5.70;;;4.53;;
19006;SDS011;9636;47.382;8.480;2022-08-14T07:12:05;7.93;;;4.55;;
19006;SDS011;9636;47.382;8.480;2022-08-14T07:14:33;5.33;;;4.47;;
19006;SDS011;9636;47.382;8.480;2022-08-14T07:17:00;6.13;;;4.22;;
19006;SDS011;9636;47.382;8.480;2022-08-14T07:19:26;5.65;;;4.30;;
19006;SDS011;9636;47.382;8.480;2022-08-14T07:21:53;5.35;;;4.28;;
19006;SDS011;9636;47.382;8.480;2022-08-14T07:24:20;4.90;;;4.32;;
19006;SDS011;9636;47.382;8.480;2022-08-14T07:26:47;5.47;;;4.15;;
19006;SDS011;9636;47.382;8.480;2022-08-14T07:29:15;4.57;;;3.95;;
19006;SDS011;9636;47.382;8.480;2022-08-14T07:31:42;3.97;;;3.67;;
19006;SDS011;9636;47.382;8.480;2022-08-14T07:34:09;4.47;;;4.05;;
19006;SDS011;9636;47.382;8.480;2022-08-14T07:36:35;4.20;;;3.80;;
19006;SDS011;9636;47.382;8.480;2022-08-14T07:39:02;3.92;;;3.58;;
19006;SDS011;9636;47.382;8.480;2022-08-14T07:41:29;4.00;;;3.70;;
19006;SDS011;9636;47.382;8.480;2022-08-14T07:43:56;5.35;;;3.55;;
19006;SDS011;9636;47.382;8.480;2022-08-14T07:46:24;4.15;;;3.75;;
19006;SDS011;9636;47.382;8.480;2022-08-14T07:48:51;4.25;;;3.85;;
19006;SDS011;9636;47.382;8.480;2022-08-14T07:51:18;4.82;;;3.70;;
19006;SDS011;9636;47.382;8.480;2022-08-14T07:53:45;3.97;;;3.58;;
19006;SDS011;9636;47.382;8.480;2022-08-14T07:56:11;5.78;;;4.13;;
19006;SDS011;9636;47.382;8.480;2022-08-14T07:58:38;7.85;;;3.38;;
19006;SDS011;9636;47.382;8.480;2022-08-14T08:01:05;4.90;;;3.85;;
19006;SDS011;9636;47.382;8.480;2022-08-14T08:03:34;5.07;;;4.60;;
19006;SDS011;9636;47.382;8.480;2022-08-14T08:06:02;4.35;;;3.95;;
19006;SDS011;9636;47.382;8.480;2022-08-14T08:08:30;4.45;;;4.05;;
19006;SDS011;9636;47.382;8.480;2022-08-14T08:10:57;5.38;;;3.95;;
19006;SDS011;9636;47.382;8.480;2022-08-14T08:13:26;4.40;;;4.00;;
19006;SDS011;9636;47.382;8.480;2022-08-14T08:15:54;4.15;;;3.75;;
19006;SDS011;9636;47.382;8.480;2022-08-14T08:18:22;4.50;;;4.10;;
19006;SDS011;9636;47.382;8.480;2022-08-14T08:20:51;6.07;;;4.18;;
19006;SDS011;9636;47.382;8.480;2022-08-14T08:23:20;4.75;;;4.28;;
19006;SDS011;9636;47.382;8.480;2022-08-14T08:25:48;5.32;;;4.15;;
19006;SDS011;9636;47.382;8.480;2022-08-14T08:28:16;7.85;;;4.30;;
19006;SDS011;9636;47.382;8.480;2022-08-14T08:30:47;4.72;;;4.03;;
19006;SDS011;9636;47.382;8.480;2022-08-14T08:33:15;5.07;;;4.25;;
19006;SDS011;9636;47.382;8.480;2022-08-14T08:35:43;4.55;;;4.15;;
19006;SDS011;9636;47.382;8.480;2022-08-14T08:38:12;4.20;;;3.90;;
19006;SDS011;9636;47.382;8.480;2022-08-14T08:40:41;5.50;;;4.13;;
19006;SDS011;9636;47.382;8.480;2022-08-14T08:43:15;4.40;;;4.00;;
19006;SDS011;9636;47.382;8.480;2022-08-14T08:45:48;4.40;;;4.00;;
19006;SDS011;9636;47.382;8.480;2022-08-14T08:48:20;4.55;;;3.85;;
19006;SDS011;9636;47.382;8.480;2022-08-14T08:50:47;4.55;;;3.88;;
19006;SDS011;9636;47.382;8.480;2022-08-14T08:53:15;5.50;;;4.70;;
19006;SDS011;9636;47.382;8.480;2022-08-14T08:55:43;5.43;;;4.50;;
19006;SDS011;9636;47.382;8.480;2022-08-14T08:58:11;5.00;;;4.50;;
19006;SDS011;9636;47.382;8.480;2022-08-14T09:00:44;5.70;;;4.22;;
19006;SDS011;9636;47.382;8.480;2022-08-14T09:03:13;4.50;;;4.10;;
19006;SDS011;9636;47.382;8.480;2022-08-14T09:05:48;4.53;;;3.90;;
19006;SDS011;9636;47.382;8.480;2022-08-14T09:08:18;4.47;;;4.07;;
19006;SDS011;9636;47.382;8.480;2022-08-14T09:10:46;4.40;;;3.70;;
19006;SDS011;9636;47.382;8.480;2022-08-14T09:13:13;4.40;;;4.00;;
19006;SDS011;9636;47.382;8.480;2022-08-14T09:15:41;4.63;;;4.07;;
19006;SDS011;9636;47.382;8.480;2022-08-14T09:18:10;4.75;;;4.32;;
19006;SDS011;9636;47.382;8.480;2022-08-14T09:20:38;4.18;;;3.88;;
19006;SDS011;9636;47.382;8.480;2022-08-14T09:23:07;4.55;;;3.60;;
19006;SDS011;9636;47.382;8.480;2022-08-14T09:25:36;4.18;;;3.85;;
19006;SDS011;9636;47.382;8.480;2022-08-14T09:28:05;5.25;;;3.70;;
19006;SDS011;9636;47.382;8.480;2022-08-14T09:30:35;5.00;;;3.90;;
19006;SDS011;9636;47.382;8.480;2022-08-14T09:33:12;4.35;;;3.90;;
19006;SDS011;9636;47.382;8.480;2022-08-14T09:35:55;4.30;;;3.90;;
19006;SDS011;9636;47.382;8.480;2022-08-14T09:38:32;4.70;;;4.30;;
19006;SDS011;9636;47.382;8.480;2022-08-14T09:41:09;4.50;;;4.10;;
19006;SDS011;9636;47.382;8.480;2022-08-14T09:43:45;4.82;;;3.80;;
19006;SDS011;9636;47.382;8.480;2022-08-14T09:46:23;5.15;;;4.65;;
19006;SDS011;9636;47.382;8.480;2022-08-14T09:48:56;4.63;;;4.22;;
19006;SDS011;9636;47.382;8.480;2022-08-14T09:51:23;5.47;;;4.38;;
19006;SDS011;9636;47.382;8.480;2022-08-14T09:53:58;4.20;;;3.80;;
19006;SDS011;9636;47.382;8.480;2022-08-14T09:56:28;5.20;;;4.35;;
19006;SDS011;9636;47.382;8.480;2022-08-14T09:58:56;6.75;;;4.28;;
19006;SDS011;9636;47.382;8.480;2022-08-14T10:01:34;4.95;;;4.22;;
19006;SDS011;9636;47.382;8.480;2022-08-14T10:04:05;6.93;;;4.18;;
19006;SDS011;9636;47.382;8.480;2022-08-14T10:06:43;4.65;;;4.25;;
19006;SDS011;9636;47.382;8.480;2022-08-14T10:09:10;4.97;;;4.07;;
19006;SDS011;9636;47.382;8.480;2022-08-14T10:11:39;7.22;;;4.55;;
19006;SDS011;9636;47.382;8.480;2022-08-14T10:14:13;4.85;;;3.90;;
19006;SDS011;9636;47.382;8.480;2022-08-14T10:16:42;4.25;;;3.83;;
19006;SDS011;9636;47.382;8.480;2022-08-14T10:19:18;4.50;;;4.20;;
19006;SDS011;9636;47.382;8.480;2022-08-14T10:21:55;4.40;;;3.88;;
19006;SDS011;9636;47.382;8.480;2022-08-14T10:24:25;4.32;;;3.92;;
19006;SDS011;9636;47.382;8.480;2022-08-14T10:26:55;4.00;;;3.63;;
19006;SDS011;9636;47.382;8.480;2022-08-14T10:29:30;4.38;;;3.80;;
19006;SDS011;9636;47.382;8.480;2022-08-14T10:31:59;4.15;;;3.63;;
19006;SDS011;9636;47.382;8.480;2022-08-14T10:34:30;4.03;;;3.60;;
19006;SDS011;9636;47.382;8.480;2022-08-14T10:37:02;4.07;;;3.67;;
19006;SDS011;9636;47.382;8.480;2022-08-14T10:39:31;4.38;;;3.78;;
19006;SDS011;9636;47.382;8.480;2022-08-14T10:42:01;4.93;;;3.35;;
19006;SDS011;9636;47.382;8.480;2022-08-14T10:44:31;4.50;;;3.47;;
19006;SDS011;9636;47.382;8.480;2022-08-14T10:47:00;3.90;;;3.55;;
19006;SDS011;9636;47.382;8.480;2022-08-14T10:49:30;3.58;;;3.25;;
19006;SDS011;9636;47.382;8.480;2022-08-14T10:51:58;3.97;;;3.60;;
19006;SDS011;9636;47.382;8.480;2022-08-14T10:54:29;7.10;;;3.47;;
19006;SDS011;9636;47.382;8.480;2022-08-14T10:56:57;3.78;;;3.38;;
19006;SDS011;9636;47.382;8.480;2022-08-14T10:59:41;6.10;;;4.53;;
19006;SDS011;9636;47.382;8.480;2022-08-14T11:02:19;4.78;;;4.30;;
19006;SDS011;9636;47.382;8.480;2022-08-14T11:05:03;4.40;;;3.95;;
19006;SDS011;9636;47.382;8.480;2022-08-14T11:07:32;3.60;;;3.30;;
19006;SDS011;9636;47.382;8.480;2022-08-14T11:10:02;4.38;;;3.97;;
19006;SDS011;9636;47.382;8.480;2022-08-14T11:12:43;4.70;;;3.83;;
19006;SDS011;9636;47.382;8.480;2022-08-14T11:15:14;4.03;;;3.65;;
19006;SDS011;9636;47.382;8.480;2022-08-14T11:17:43;4.18;;;3.53;;
19006;SDS011;9636;47.382;8.480;2022-08-14T11:20:11;4.47;;;4.07;;
19006;SDS011;9636;47.382;8.480;2022-08-14T11:22:39;4.88;;;4.38;;
19006;SDS011;9636;47.382;8.480;2022-08-14T11:25:08;6.15;;;4.05;;
19006;SDS011;9636;47.382;8.480;2022-08-14T11:27:37;4.82;;;4.43;;
19006;SDS011;9636;47.382;8.480;2022-08-14T11:30:05;5.38;;;4.60;;
19006;SDS011;9636;47.382;8.480;2022-08-14T11:32:35;5.95;;;4.28;;
19006;SDS011;9636;47.382;8.480;2022-08-14T11:35:09;4.40;;;4.10;;
19006;SDS011;9636;47.382;8.480;2022-08-14T11:37:37;4.82;;;4.40;;
19006;SDS011;9636;47.382;8.480;2022-08-14T11:40:14;6.68;;;4.35;;
19006;SDS011;9636;47.382;8.480;2022-08-14T11:42:43;5.07;;;4.63;;
19006;SDS011;9636;47.382;8.480;2022-08-14T11:45:12;4.75;;;4.00;;
19006;SDS011;9636;47.382;8.480;2022-08-14T11:47:41;6.80;;;4.32;;
19006;SDS011;9636;47.382;8.480;2022-08-14T11:50:12;4.80;;;4.05;;
19006;SDS011;9636;47.382;8.480;2022-08-14T11:52:43;8.07;;;4.43;;
19006;SDS011;9636;47.382;8.480;2022-08-14T11:55:11;4.28;;;3.88;;
19006;SDS011;9636;47.382;8.480;2022-08-14T11:57:40;4.65;;;3.83;;
19006;SDS011;9636;47.382;8.480;2022-08-14T12:00:09;6.75;;;4.05;;
19006;SDS011;9636;47.382;8.480;2022-08-14T12:02:49;4.70;;;4.30;;
19006;SDS011;9636;47.382;8.480;2022-08-14T12:05:26;4.88;;;3.88;;
19006;SDS011;9636;47.382;8.480;2022-08-14T12:07:56;4.95;;;3.50;;
19006;SDS011;9636;47.382;8.480;2022-08-14T12:10:23;4.20;;;3.80;;
19006;SDS011;9636;47.382;8.480;2022-08-14T12:12:50;4.97;;;3.78;;
19006;SDS011;9636;47.382;8.480;2022-08-14T12:15:27;7.95;;;3.45;;
19006;SDS011;9636;47.382;8.480;2022-08-14T12:17:57;5.65;;;3.10;;
19006;SDS011;9636;47.382;8.480;2022-08-14T12:20:28;3.58;;;3.00;;
19006;SDS011;9636;47.382;8.480;2022-08-14T12:22:57;3.17;;;2.90;;
19006;SDS011;9636;47.382;8.480;2022-08-14T12:25:25;6.00;;;3.10;;
19006;SDS011;9636;47.382;8.480;2022-08-14T12:27:53;5.18;;;2.97;;
19006;SDS011;9636;47.382;8.480;2022-08-14T12:30:25;3.38;;;2.72;;
19006;SDS011;9636;47.382;8.480;2022-08-14T12:32:54;3.33;;;2.80;;
19006;SDS011;9636;47.382;8.480;2022-08-14T12:35:33;6.03;;;3.08;;
19006;SDS011;9636;47.382;8.480;2022-08-14T12:38:01;5.80;;;3.22;;
19006;SDS011;9636;47.382;8.480;2022-08-14T12:40:29;3.40;;;3.10;;
19006;SDS011;9636;47.382;8.480;2022-08-14T12:42:57;5.75;;;3.13;;
19006;SDS011;9636;47.382;8.480;2022-08-14T12:45:28;4.20;;;2.97;;
19006;SDS011;9636;47.382;8.480;2022-08-14T12:48:00;4.15;;;3.17;;
19006;SDS011;9636;47.382;8.480;2022-08-14T12:50:37;3.55;;;3.22;;
19006;SDS011;9636;47.382;8.480;2022-08-14T12:53:06;4.43;;;3.08;;
19006;SDS011;9636;47.382;8.480;2022-08-14T12:55:34;3.35;;;3.03;;
19006;SDS011;9636;47.382;8.480;2022-08-14T12:58:02;4.00;;;3.30;;
19006;SDS011;9636;47.382;8.480;2022-08-14T13:00:30;5.13;;;3.20;;
19006;SDS011;9636;47.382;8.480;2022-08-14T13:02:58;4.70;;;3.25;;
19006;SDS011;9636;47.382;8.480;2022-08-14T13:05:26;4.85;;;3.50;;
19006;SDS011;9636;47.382;8.480;2022-08-14T13:07:57;5.10;;;3.40;;
19006;SDS011;9636;47.382;8.480;2022-08-14T13:10:27;4.07;;;3.20;;
19006;SDS011;9636;47.382;8.480;2022-08-14T13:12:57;3.75;;;3.30;;
19006;SDS011;9636;47.382;8.480;2022-08-14T13:15:26;6.72;;;2.95;;
19006;SDS011;9636;47.382;8.480;2022-08-14T13:17:54;4.50;;;3.00;;
19006;SDS011;9636;47.382;8.480;2022-08-14T13:20:22;5.13;;;3.53;;
19006;SDS011;9636;47.382;8.480;2022-08-14T13:22:52;3.90;;;3.13;;
19006;SDS011;9636;47.382;8.480;2022-08-14T13:25:21;3.33;;;2.95;;
19006;SDS011;9636;47.382;8.480;2022-08-14T13:27:50;4.00;;;3.13;;
19006;SDS011;9636;47.382;8.480;2022-08-14T13:30:20;3.85;;;2.83;;
19006;SDS011;9636;47.382;8.480;2022-08-14T13:32:48;3.10;;;2.75;;
19006;SDS011;9636;47.382;8.480;2022-08-14T13:35:16;5.82;;;3.22;;
19006;SDS011;9636;47.382;8.480;2022-08-14T13:37:44;3.70;;;3.30;;
19006;SDS011;9636;47.382;8.480;2022-08-14T13:40:14;5.43;;;3.28;;
19006;SDS011;9636;47.382;8.480;2022-08-14T13:42:44;7.07;;;3.53;;
19006;SDS011;9636;47.382;8.480;2022-08-14T13:45:12;4.85;;;3.33;;
19006;SDS011;9636;47.382;8.480;2022-08-14T13:47:40;3.45;;;3.15;;
19006;SDS011;9636;47.382;8.480;2022-08-14T13:50:09;3.72;;;3.42;;
19006;SDS011;9636;47.382;8.480;2022-08-14T13:52:38;3.88;;;3.50;;
19006;SDS011;9636;47.382;8.480;2022-08-14T13:55:08;4.18;;;3.50;;
19006;SDS011;9636;47.382;8.480;2022-08-14T13:57:38;3.33;;;3.03;;
19006;SDS011;9636;47.382;8.480;2022-08-14T14:00:09;5.20;;;3.17;;
19006;SDS011;9636;47.382;8.480;2022-08-14T14:02:38;7.57;;;3.40;;
19006;SDS011;9636;47.382;8.480;2022-08-14T14:05:06;3.85;;;3.45;;
19006;SDS011;9636;47.382;8.480;2022-08-14T14:07:34;6.20;;;3.58;;
19006;SDS011;9636;47.382;8.480;2022-08-14T14:10:04;4.78;;;3.30;;
19006;SDS011;9636;47.382;8.480;2022-08-14T14:12:33;4.82;;;3.42;;
19006;SDS011;9636;47.382;8.480;2022-08-14T14:15:08;4.22;;;3.78;;
19006;SDS011;9636;47.382;8.480;2022-08-14T14:17:39;7.20;;;4.10;;
19006;SDS011;9636;47.382;8.480;2022-08-14T14:20:07;4.95;;;3.70;;
19006;SDS011;9636;47.382;8.480;2022-08-14T14:22:38;9.80;;;4.15;;
19006;SDS011;9636;47.382;8.480;2022-08-14T14:25:07;4.30;;;3.90;;
19006;SDS011;9636;47.382;8.480;2022-08-14T14:27:35;4.70;;;3.70;;
19006;SDS011;9636;47.382;8.480;2022-08-14T14:30:03;4.30;;;3.90;;
19006;SDS011;9636;47.382;8.480;2022-08-14T14:32:32;7.75;;;3.90;;
19006;SDS011;9636;47.382;8.480;2022-08-14T14:35:07;5.70;;;3.92;;
19006;SDS011;9636;47.382;8.480;2022-08-14T14:37:37;4.90;;;4.15;;
19006;SDS011;9636;47.382;8.480;2022-08-14T14:40:05;7.82;;;4.40;;
19006;SDS011;9636;47.382;8.480;2022-08-14T14:42:32;4.45;;;3.88;;
19006;SDS011;9636;47.382;8.480;2022-08-14T14:45:05;5.63;;;4.70;;
19006;SDS011;9636;47.382;8.480;2022-08-14T14:47:39;4.97;;;3.95;;
19006;SDS011;9636;47.382;8.480;2022-08-14T14:50:08;4.57;;;3.85;;
19006;SDS011;9636;47.382;8.480;2022-08-14T14:52:36;6.97;;;4.13;;
19006;SDS011;9636;47.382;8.480;2022-08-14T14:55:04;6.53;;;4.03;;
19006;SDS011;9636;47.382;8.480;2022-08-14T14:57:33;5.63;;;3.78;;
19006;SDS011;9636;47.382;8.480;2022-08-14T15:00:00;5.68;;;4.43;;
19006;SDS011;9636;47.382;8.480;2022-08-14T15:02:32;5.95;;;3.92;;
19006;SDS011;9636;47.382;8.480;2022-08-14T15:05:01;4.65;;;4.25;;
19006;SDS011;9636;47.382;8.480;2022-08-14T15:07:32;5.93;;;4.20;;
19006;SDS011;9636;47.382;8.480;2022-08-14T15:09:59;4.28;;;3.83;;
19006;SDS011;9636;47.382;8.480;2022-08-14T15:12:26;4.35;;;3.90;;
19006;SDS011;9636;47.382;8.480;2022-08-14T15:14:53;8.63;;;4.60;;
19006;SDS011;9636;47.382;8.480;2022-08-14T15:17:20;6.40;;;4.38;;
19006;SDS011;9636;47.382;8.480;2022-08-14T15:19:47;6.63;;;4.20;;